createdAt,value
2019-02-24T00:00:41.838Z,6.87
2019-02-24T00:03:24.332Z,8.10
2019-02-24T00:06:06.275Z,7.90
2019-02-24T00:08:46.788Z,7.55
2019-02-24T00:11:36.104Z,7.80
2019-02-24T00:14:17.886Z,6.20
2019-02-24T00:16:59.592Z,7.87
2019-02-24T00:19:42.337Z,11.68
2019-02-24T00:22:24.872Z,14.47
2019-02-24T00:25:07.495Z,9.88
2019-02-24T00:27:51.375Z,13.48
2019-02-24T00:30:33.741Z,9.20
2019-02-24T00:33:17.713Z,8.65
2019-02-24T00:36:00.023Z,9.03
2019-02-24T00:38:42.312Z,7.85
2019-02-24T00:41:23.975Z,6.78
2019-02-24T00:44:04.730Z,7.37
2019-02-24T00:46:54.036Z,7.42
2019-02-24T00:49:36.768Z,7.12
2019-02-24T00:52:18.858Z,8.70
2019-02-24T00:54:59.519Z,7.55
2019-02-24T00:57:48.848Z,7.90
2019-02-24T01:00:30.748Z,7.95
2019-02-24T01:03:12.929Z,5.85
2019-02-24T01:05:55.041Z,8.10
2019-02-24T01:08:37.360Z,6.25
2019-02-24T01:11:19.621Z,8.70
2019-02-24T01:14:02.432Z,7.53
2019-02-24T01:16:45.447Z,7.40
2019-02-24T01:19:27.764Z,8.08
2019-02-24T01:22:09.970Z,8.05
2019-02-24T01:24:52.416Z,7.80
2019-02-24T01:27:33.154Z,7.87
2019-02-24T01:30:23.747Z,7.60
2019-02-24T01:33:06.212Z,7.40
2019-02-24T01:35:48.673Z,9.68
2019-02-24T01:38:30.940Z,5.97
2019-02-24T01:41:13.480Z,8.88
2019-02-24T01:43:55.223Z,7.17
2019-02-24T01:46:37.752Z,8.13
2019-02-24T01:49:20.716Z,7.15
2019-02-24T01:52:02.365Z,7.30
2019-02-24T01:54:44.565Z,7.20
2019-02-24T01:57:27.004Z,7.47
2019-02-24T02:00:09.345Z,8.28
2019-02-24T02:02:51.817Z,8.28
2019-02-24T02:05:34.666Z,5.95
2019-02-24T02:08:17.358Z,8.28
2019-02-24T02:11:00.268Z,7.72
2019-02-24T02:13:42.879Z,7.35
2019-02-24T02:16:24.876Z,7.30
2019-02-24T02:19:07.833Z,7.50
2019-02-24T02:21:49.942Z,7.65
2019-02-24T02:24:32.717Z,6.87
2019-02-24T02:27:15.552Z,6.65
2019-02-24T02:29:58.173Z,7.05
2019-02-24T02:32:40.712Z,7.55
2019-02-24T02:35:22.771Z,7.28
2019-02-24T02:38:05.504Z,8.58
2019-02-24T02:40:48.120Z,6.58
2019-02-24T02:43:30.460Z,7.37
2019-02-24T02:48:53.864Z,8.00
2019-02-24T02:51:35.816Z,7.72
2019-02-24T02:54:17.761Z,6.95
2019-02-24T02:57:00.403Z,6.85
2019-02-24T02:59:42.753Z,6.85
2019-02-24T03:02:25.068Z,7.33
2019-02-24T03:05:06.872Z,6.75
2019-02-24T03:07:55.781Z,7.15
2019-02-24T03:10:37.875Z,6.60
2019-02-24T03:13:20.170Z,6.30
2019-02-24T03:16:02.608Z,7.08
2019-02-24T03:18:43.078Z,6.60
2019-02-24T03:21:32.483Z,7.60
2019-02-24T03:24:14.358Z,6.12
2019-02-24T03:26:56.973Z,5.85
2019-02-24T03:29:39.475Z,7.03
2019-02-24T03:32:21.914Z,6.05
2019-02-24T03:35:04.312Z,6.20
2019-02-24T03:37:46.158Z,5.87
2019-02-24T03:40:28.218Z,7.95
2019-02-24T03:43:10.936Z,7.03
2019-02-24T03:45:53.462Z,7.03
2019-02-24T03:48:36.002Z,7.33
2019-02-24T03:51:18.922Z,8.00
2019-02-24T03:54:00.674Z,5.95
2019-02-24T03:56:43.197Z,6.85
2019-02-24T03:59:25.897Z,6.00
2019-02-24T04:02:08.436Z,6.37
2019-02-24T04:04:51.288Z,5.90
2019-02-24T04:07:33.855Z,6.42
2019-02-24T04:10:16.884Z,5.97
2019-02-24T04:12:58.881Z,5.55
2019-02-24T04:15:40.840Z,5.75
2019-02-24T04:18:23.792Z,7.53
2019-02-24T04:21:05.926Z,6.00
2019-02-24T04:23:48.010Z,6.22
2019-02-24T04:26:30.112Z,6.22
2019-02-24T04:29:12.025Z,6.53
2019-02-24T04:31:54.334Z,6.45
2019-02-24T04:34:36.880Z,7.45
2019-02-24T04:37:19.726Z,5.55
2019-02-24T04:40:01.782Z,6.72
2019-02-24T04:42:45.281Z,5.78
2019-02-24T04:45:27.420Z,5.85
2019-02-24T04:48:10.050Z,6.17
2019-02-24T04:50:50.559Z,6.15
2019-02-24T04:53:40.152Z,5.40
2019-02-24T04:56:23.564Z,5.67
2019-02-24T04:59:06.302Z,5.75
2019-02-24T05:01:48.306Z,5.75
2019-02-24T05:04:30.813Z,5.55
2019-02-24T05:07:14.024Z,5.30
2019-02-24T05:09:55.970Z,5.70
2019-02-24T05:12:38.696Z,5.58
2019-02-24T05:15:20.540Z,4.92
2019-02-24T05:18:03.654Z,6.00
2019-02-24T05:20:46.261Z,5.87
2019-02-24T05:23:27.027Z,6.42
2019-02-24T05:26:16.695Z,5.42
2019-02-24T05:28:59.274Z,5.65
2019-02-24T05:31:40.986Z,6.17
2019-02-24T05:34:22.711Z,6.35
2019-02-24T05:37:06.391Z,5.58
2019-02-24T05:39:49.224Z,6.03
2019-02-24T05:42:31.750Z,5.40
2019-02-24T05:45:13.993Z,6.05
2019-02-24T05:47:56.449Z,6.85
2019-02-24T05:50:38.668Z,6.60
2019-02-24T05:53:20.521Z,5.20
2019-02-24T05:56:03.104Z,5.40
2019-02-24T05:58:44.772Z,6.12
2019-02-24T06:01:26.601Z,6.53
2019-02-24T06:04:09.741Z,5.45
2019-02-24T06:06:50.353Z,5.87
2019-02-24T06:09:39.684Z,6.35
2019-02-24T06:12:22.580Z,6.65
2019-02-24T06:15:04.381Z,8.35
2019-02-24T06:17:46.700Z,7.58
2019-02-24T06:20:28.709Z,7.42
2019-02-24T06:23:09.062Z,7.00
2019-02-24T06:25:58.716Z,6.80
2019-02-24T06:28:41.327Z,6.53
2019-02-24T06:31:23.441Z,6.62
2019-02-24T06:34:06.414Z,6.47
2019-02-24T06:36:48.487Z,5.62
2019-02-24T06:39:31.269Z,6.20
2019-02-24T06:42:13.160Z,6.60
2019-02-24T06:44:55.649Z,6.22
2019-02-24T06:47:37.686Z,5.60
2019-02-24T06:50:19.975Z,5.90
2019-02-24T06:53:01.863Z,6.42
2019-02-24T06:55:44.005Z,5.75
2019-02-24T06:58:26.262Z,6.60
2019-02-24T07:01:08.647Z,6.05
2019-02-24T07:03:51.035Z,6.60
2019-02-24T07:06:33.305Z,5.87
2019-02-24T07:09:16.699Z,6.58
2019-02-24T07:11:58.760Z,6.75
2019-02-24T07:14:41.269Z,6.55
2019-02-24T07:17:23.043Z,5.05
2019-02-24T07:20:05.378Z,5.85
2019-02-24T07:22:47.202Z,6.03
2019-02-24T07:25:28.844Z,6.62
2019-02-24T07:28:10.878Z,7.37
2019-02-24T07:30:53.960Z,8.00
2019-02-24T07:33:35.720Z,7.27
2019-02-24T07:36:17.968Z,7.45
2019-02-24T07:39:00.011Z,7.30
2019-02-24T07:41:44.433Z,7.90
2019-02-24T07:44:26.188Z,7.33
2019-02-24T07:47:09.247Z,7.37
2019-02-24T07:49:51.966Z,5.55
2019-02-24T07:52:34.569Z,6.85
2019-02-24T07:55:17.036Z,8.10
2019-02-24T07:57:57.451Z,5.92
2019-02-24T08:00:47.059Z,7.03
2019-02-24T08:03:30.386Z,5.87
2019-02-24T08:06:12.116Z,7.10
2019-02-24T08:08:54.426Z,7.23
2019-02-24T08:11:36.234Z,7.33
2019-02-24T08:14:19.337Z,6.58
2019-02-24T08:17:01.543Z,7.17
2019-02-24T08:19:43.912Z,7.40
2019-02-24T08:22:26.031Z,6.73
2019-02-24T08:25:08.324Z,6.93
2019-02-24T08:27:50.869Z,6.50
2019-02-24T08:30:41.252Z,6.60
2019-02-24T08:33:17.380Z,7.43
2019-02-24T08:35:59.208Z,6.90
2019-02-24T08:38:41.240Z,5.93
2019-02-24T08:41:23.606Z,6.83
2019-02-24T08:44:06.993Z,5.73
2019-02-24T08:46:50.515Z,6.17
2019-02-24T08:49:33.165Z,6.50
2019-02-24T08:52:15.769Z,6.63
2019-02-24T08:54:58.422Z,7.27
2019-02-24T08:57:40.976Z,6.83
2019-02-24T09:00:23.846Z,8.37
2019-02-24T09:03:05.940Z,6.63
2019-02-24T09:05:48.661Z,7.10
2019-02-24T09:08:31.178Z,7.90
2019-02-24T09:11:11.773Z,6.60
2019-02-24T09:14:01.688Z,7.30
2019-02-24T09:16:44.352Z,7.17
2019-02-24T09:19:26.579Z,7.13
2019-02-24T09:22:09.318Z,7.00
2019-02-24T09:24:51.624Z,7.60
2019-02-24T09:27:33.427Z,7.50
2019-02-24T09:30:16.180Z,5.90
2019-02-24T09:33:22.484Z,6.23
2019-02-24T09:36:05.133Z,6.73
2019-02-24T09:38:47.044Z,7.00
2019-02-24T09:41:29.316Z,8.30
2019-02-24T09:44:11.788Z,5.70
2019-02-24T09:46:54.510Z,5.70
2019-02-24T09:49:36.457Z,6.80
2019-02-24T09:52:18.962Z,6.23
2019-02-24T09:55:01.047Z,6.50
2019-02-24T09:57:44.265Z,6.80
2019-02-24T10:00:25.997Z,6.27
2019-02-24T10:03:08.713Z,6.87
2019-02-24T10:05:50.502Z,6.60
2019-02-24T10:08:33.242Z,7.37
2019-02-24T10:11:15.764Z,7.57
2019-02-24T10:13:57.970Z,6.13
2019-02-24T10:16:39.978Z,6.10
2019-02-24T10:19:22.385Z,5.93
2019-02-24T10:22:04.813Z,6.60
2019-02-24T10:24:47.231Z,7.67
2019-02-24T10:27:29.113Z,6.20
2019-02-24T10:30:11.596Z,6.10
2019-02-24T10:32:53.734Z,6.50
2019-02-24T10:35:36.350Z,5.77
2019-02-24T10:38:18.670Z,5.97
2019-02-24T10:41:01.313Z,6.43
2019-02-24T10:43:43.378Z,5.77
2019-02-24T10:46:25.633Z,5.40
2019-02-24T10:49:07.636Z,4.87
2019-02-24T10:51:49.389Z,4.67
2019-02-24T10:54:31.381Z,5.17
2019-02-24T10:57:13.128Z,6.07
2019-02-24T10:59:55.054Z,5.33
2019-02-24T11:02:36.928Z,7.07
2019-02-24T11:05:19.639Z,7.27
2019-02-24T11:08:01.397Z,5.40
2019-02-24T11:10:42.381Z,4.67
2019-02-24T11:13:31.681Z,5.90
2019-02-24T11:16:14.536Z,6.37
2019-02-24T11:18:56.501Z,6.13
2019-02-24T11:21:38.589Z,6.23
2019-02-24T11:24:21.445Z,11.90
2019-02-24T11:27:03.663Z,5.87
2019-02-24T11:29:46.308Z,5.47
2019-02-24T11:32:28.725Z,5.80
2019-02-24T11:35:10.440Z,6.33
2019-02-24T11:37:53.852Z,6.10
2019-02-24T11:40:36.293Z,6.03
2019-02-24T11:43:18.923Z,7.10
2019-02-24T11:46:01.429Z,5.73
2019-02-24T11:48:43.820Z,6.00
2019-02-24T11:51:25.443Z,6.40
2019-02-24T11:54:08.364Z,6.67
2019-02-24T11:56:50.580Z,7.07
2019-02-24T11:59:33.277Z,5.10
2019-02-24T12:02:15.768Z,6.00
2019-02-24T12:04:57.985Z,6.57
2019-02-24T12:07:40.457Z,5.10
2019-02-24T12:10:22.720Z,5.70
2019-02-24T12:13:04.612Z,6.30
2019-02-24T12:15:47.643Z,6.63
2019-02-24T12:18:29.428Z,5.33
2019-02-24T12:21:11.948Z,5.13
2019-02-24T12:23:54.821Z,5.70
2019-02-24T12:26:37.614Z,5.20
2019-02-24T12:29:19.273Z,5.90
2019-02-24T12:32:01.832Z,5.57
2019-02-24T12:34:44.492Z,6.17
2019-02-24T12:37:27.276Z,5.33
2019-02-24T12:40:09.819Z,4.70
2019-02-24T12:42:51.845Z,4.87
2019-02-24T12:45:34.325Z,4.97
2019-02-24T12:48:18.045Z,4.43
2019-02-24T12:51:00.140Z,5.70
2019-02-24T12:53:42.020Z,5.77
2019-02-24T12:56:24.762Z,5.27
2019-02-24T12:59:07.596Z,4.80
2019-02-24T13:01:50.085Z,5.27
2019-02-24T13:04:32.887Z,5.17
2019-02-24T13:07:14.716Z,4.43
2019-02-24T13:09:57.457Z,5.63
2019-02-24T13:12:39.606Z,5.80
2019-02-24T13:15:22.350Z,5.10
2019-02-24T13:18:04.381Z,5.63
2019-02-24T13:20:47.077Z,5.10
2019-02-24T13:23:29.112Z,5.20
2019-02-24T13:26:11.642Z,4.57
2019-02-24T13:28:52.146Z,5.30
2019-02-24T13:34:42.770Z,4.50
2019-02-24T13:37:24.669Z,5.30
2019-02-24T13:40:07.205Z,5.37
2019-02-24T13:42:48.917Z,4.90
2019-02-24T13:45:29.539Z,5.60
2019-02-24T13:48:18.956Z,5.23
2019-02-24T13:51:01.180Z,6.70
2019-02-24T13:53:43.591Z,5.90
2019-02-24T13:56:26.362Z,5.37
2019-02-24T13:59:08.748Z,6.27
2019-02-24T14:01:51.608Z,6.30
2019-02-24T14:04:34.028Z,6.33
2019-02-24T14:07:16.499Z,6.00
2019-02-24T14:09:58.220Z,5.20
2019-02-24T14:12:41.204Z,6.30
2019-02-24T14:15:23.372Z,5.43
2019-02-24T14:18:06.016Z,5.10
2019-02-24T14:20:49.417Z,6.63
2019-02-24T14:23:29.844Z,6.10
2019-02-24T14:29:26.956Z,5.70
2019-02-24T14:32:09.425Z,6.83
2019-02-24T14:34:51.914Z,6.00
2019-02-24T14:37:33.828Z,6.00
2019-02-24T14:40:17.084Z,6.37
2019-02-24T14:42:58.886Z,6.80
2019-02-24T14:45:39.704Z,7.07
2019-02-24T14:51:36.172Z,6.53
2019-02-24T14:54:18.589Z,7.53
2019-02-24T14:57:00.924Z,7.00
2019-02-24T14:59:43.382Z,7.43
2019-02-24T15:02:25.477Z,6.23
2019-02-24T15:05:11.460Z,7.10
2019-02-24T15:07:53.912Z,6.60
2019-02-24T15:10:36.508Z,7.27
2019-02-24T15:13:18.485Z,6.60
2019-02-24T15:16:01.172Z,6.40
2019-02-24T15:18:43.139Z,7.60
2019-02-24T15:21:25.704Z,6.97
2019-02-24T15:24:09.028Z,8.07
2019-02-24T15:26:51.643Z,6.30
2019-02-24T15:29:33.516Z,7.20
2019-02-24T15:32:15.966Z,7.40
2019-02-24T15:34:58.447Z,6.53
2019-02-24T15:37:40.400Z,6.53
2019-02-24T15:40:22.840Z,6.83
2019-02-24T15:43:05.452Z,6.93
2019-02-24T15:45:48.340Z,6.80
2019-02-24T15:48:30.884Z,7.17
2019-02-24T15:51:11.513Z,7.40
2019-02-24T15:54:01.240Z,7.90
2019-02-24T15:56:43.500Z,8.17
2019-02-24T15:59:26.313Z,8.10
2019-02-24T16:02:08.733Z,6.10
2019-02-24T16:04:51.190Z,7.30
2019-02-24T16:07:33.456Z,7.80
2019-02-24T16:10:16.379Z,9.00
2019-02-24T16:12:56.872Z,9.10
2019-02-24T16:18:53.085Z,7.00
2019-02-24T16:21:36.051Z,31.47
2019-02-24T16:24:18.360Z,34.47
2019-02-24T16:27:01.272Z,28.07
2019-02-24T16:29:43.903Z,17.97
2019-02-24T16:32:26.500Z,12.20
2019-02-24T16:35:08.923Z,13.97
2019-02-24T16:37:51.709Z,15.10
2019-02-24T16:40:34.489Z,9.50
2019-02-24T16:43:17.264Z,9.47
2019-02-24T16:45:59.757Z,8.20
2019-02-24T16:48:43.337Z,8.30
2019-02-24T16:51:26.073Z,7.90
2019-02-24T16:54:08.489Z,7.70
2019-02-24T16:56:51.332Z,6.70
2019-02-24T16:59:33.615Z,6.47
2019-02-24T17:02:22.564Z,5.43
2019-02-24T17:04:59.872Z,5.90
2019-02-24T17:07:42.540Z,4.77
2019-02-24T17:10:25.297Z,6.17
2019-02-24T17:13:08.145Z,6.00
2019-02-24T17:15:50.526Z,5.20
2019-02-24T17:18:33.157Z,5.20
2019-02-24T17:21:15.730Z,5.50
2019-02-24T17:23:56.795Z,5.13
2019-02-24T17:26:47.792Z,5.00
2019-02-24T17:29:29.621Z,5.17
2019-02-24T17:32:12.197Z,4.90
2019-02-24T17:34:54.221Z,5.57
2019-02-24T17:37:37.669Z,5.40
2019-02-24T17:40:20.691Z,5.60
2019-02-24T17:43:03.415Z,7.13
2019-02-24T17:45:45.259Z,6.73
2019-02-24T17:51:26.919Z,6.03
2019-02-24T17:54:07.273Z,5.87
2019-02-24T17:56:50.585Z,5.70
2019-02-24T17:59:40.218Z,6.40
2019-02-24T18:02:16.923Z,5.77
2019-02-24T18:04:58.874Z,6.50
2019-02-24T18:07:40.797Z,4.97
2019-02-24T18:10:22.039Z,5.17
2019-02-24T18:13:11.624Z,7.40
2019-02-24T18:15:53.873Z,7.50
2019-02-24T18:18:35.958Z,6.40
2019-02-24T18:21:19.446Z,6.30
2019-02-24T18:24:02.177Z,6.40
2019-02-24T18:26:43.079Z,6.40
2019-02-24T18:29:32.456Z,8.03
2019-02-24T18:32:15.078Z,6.40
2019-02-24T18:34:57.521Z,6.53
2019-02-24T18:37:39.874Z,8.83
2019-02-24T18:40:22.499Z,7.63
2019-02-24T18:43:04.876Z,7.60
2019-02-24T18:45:47.525Z,5.07
2019-02-24T18:48:29.858Z,6.10
2019-02-24T18:51:12.231Z,5.70
2019-02-24T18:53:54.942Z,5.10
2019-02-24T18:56:37.232Z,5.03
2019-02-24T18:59:19.525Z,6.17
2019-02-24T19:02:02.088Z,6.40
2019-02-24T19:04:44.600Z,5.13
2019-02-24T19:07:27.772Z,6.47
2019-02-24T19:10:10.923Z,5.10
2019-02-24T19:12:52.748Z,5.77
2019-02-24T19:15:34.903Z,6.93
2019-02-24T19:18:17.876Z,5.87
2019-02-24T19:20:59.780Z,5.57
2019-02-24T19:23:41.636Z,6.50
2019-02-24T19:26:22.279Z,6.00
2019-02-24T19:29:04.063Z,6.53
2019-02-24T19:31:45.920Z,4.40
2019-02-24T19:34:28.428Z,5.20
2019-02-24T19:37:10.876Z,5.67
2019-02-24T19:39:54.461Z,6.13
2019-02-24T19:42:36.434Z,5.70
2019-02-24T19:45:19.317Z,5.43
2019-02-24T19:48:02.304Z,5.83
2019-02-24T19:50:44.585Z,6.20
2019-02-24T19:53:27.325Z,5.00
2019-02-24T19:56:09.599Z,5.90
2019-02-24T19:58:51.488Z,5.70
2019-02-24T20:01:33.464Z,5.27
2019-02-24T20:04:16.457Z,5.67
2019-02-24T20:06:59.385Z,4.87
2019-02-24T20:09:42.486Z,5.67
2019-02-24T20:12:25.144Z,4.83
2019-02-24T20:15:07.953Z,6.10
2019-02-24T20:17:50.248Z,5.37
2019-02-24T20:20:32.342Z,5.60
2019-02-24T20:23:14.096Z,5.57
2019-02-24T20:25:56.848Z,5.23
2019-02-24T20:31:29.871Z,4.87
2019-02-24T20:34:11.626Z,6.17
2019-02-24T20:36:54.002Z,4.50
2019-02-24T20:39:36.148Z,5.90
2019-02-24T20:42:18.427Z,6.40
2019-02-24T20:44:58.903Z,6.17
2019-02-24T20:50:55.626Z,8.75
2019-02-24T20:53:37.831Z,6.37
2019-02-24T20:56:20.709Z,6.63
2019-02-24T20:59:02.632Z,6.23
2019-02-24T21:01:45.442Z,5.90
2019-02-24T21:04:27.654Z,6.20
2019-02-24T21:07:09.381Z,8.13
2019-02-24T21:09:52.339Z,6.73
2019-02-24T21:12:34.792Z,7.63
2019-02-24T21:15:16.955Z,9.00
2019-02-24T21:17:58.647Z,8.80
2019-02-24T21:20:40.881Z,7.47
2019-02-24T21:23:22.821Z,7.10
2019-02-24T21:26:04.737Z,8.43
2019-02-24T21:28:46.379Z,6.80
2019-02-24T21:31:28.189Z,6.70
2019-02-24T21:36:51.712Z,8.03
2019-02-24T21:39:34.600Z,9.47
2019-02-24T21:42:17.011Z,8.67
2019-02-24T21:44:59.616Z,8.70
2019-02-24T21:47:42.354Z,8.10
2019-02-24T21:50:24.533Z,6.75
2019-02-24T21:53:06.446Z,7.22
2019-02-24T21:55:49.035Z,7.42
2019-02-24T21:58:31.777Z,6.83
2019-02-24T22:01:13.837Z,8.53
2019-02-24T22:03:56.688Z,7.33
2019-02-24T22:06:38.441Z,7.50
2019-02-24T22:09:21.286Z,6.50
2019-02-24T22:12:03.791Z,8.60
2019-02-24T22:14:45.901Z,9.50
2019-02-24T22:17:28.048Z,7.33
2019-02-24T22:20:10.097Z,9.10
2019-02-24T22:22:52.052Z,7.75
2019-02-24T22:25:34.725Z,7.50
2019-02-24T22:28:17.235Z,7.20
2019-02-24T22:31:00.225Z,7.90
2019-02-24T22:33:42.189Z,7.53
2019-02-24T22:36:24.792Z,6.57
2019-02-24T22:39:07.332Z,7.97
2019-02-24T22:41:50.593Z,8.20
2019-02-24T22:44:31.373Z,7.78
2019-02-24T22:47:20.833Z,8.13
2019-02-24T22:50:03.477Z,7.60
2019-02-24T22:52:46.098Z,7.37
2019-02-24T22:55:28.224Z,7.80
2019-02-24T22:58:11.114Z,6.97
2019-02-24T23:01:12.251Z,7.03
2019-02-24T23:03:55.792Z,8.35
2019-02-24T23:06:37.760Z,7.93
2019-02-24T23:09:20.176Z,7.23
2019-02-24T23:12:00.572Z,7.10
2019-02-24T23:14:51.129Z,8.73
2019-02-24T23:17:32.938Z,8.18
2019-02-24T23:20:14.968Z,7.55
2019-02-24T23:22:57.291Z,6.58
2019-02-24T23:25:37.980Z,8.60
2019-02-24T23:28:27.633Z,7.40
2019-02-24T23:31:08.132Z,7.60
2019-02-24T23:33:57.756Z,7.90
2019-02-24T23:36:40.045Z,7.42
2019-02-24T23:39:21.928Z,7.35
2019-02-24T23:42:03.917Z,6.47
2019-02-24T23:44:46.236Z,7.13
2019-02-24T23:47:28.659Z,7.53
2019-02-24T23:50:11.195Z,7.65
2019-02-24T23:52:54.005Z,6.80
2019-02-24T23:55:36.468Z,8.03
2019-02-24T23:58:20.378Z,7.95
